Time;durP1;ratioP1;P1;durP2;ratioP2;P2;SDS_P1;SDS_P2;PMS_P1;PMS_P2;Temp;Humidity;BMP_temperature;BMP_pressure;BME280_temperature;BME280_humidity;BME280_pressure;Samples;Min_cycle;Max_cycle;Signal;HPM_P1;HPM_P2
2021/05/15 00:00:26;;;;;;;;;;;;;;;;;;1474894;40;6975;-61
2021/05/15 00:01:28;;;;;;;;;;;;;;;;;;1474812;40;6991;-61
2021/05/15 00:02:29;;;;;;;;;;;;;;;;;;1474718;40;6969;-61
2021/05/15 00:03:30;;;;;;;;;;;;;;;;;;1474735;40;6967;-61
2021/05/15 00:04:31;;;;;;;;;;;;;;;;;;1478463;40;7887;-61
2021/05/15 00:05:33;;;;;;;;;;;;;;;;;;1478767;40;7887;-62
2021/05/15 00:06:34;;;;;;;;;;;;;;;;;;1478694;40;7619;-63
2021/05/15 00:07:36;;;;;;;;;;;;;;;;;;1478706;40;7003;-61
2021/05/15 00:08:37;;;;;;;;;;;;;;;;;;1479086;40;6971;-62
2021/05/15 00:09:38;;;;;;;;;;;;;;;;;;1478675;40;6943;-66
2021/05/15 00:10:40;;;;;;;;;;;;;;;;;;1478821;40;6956;-62
2021/05/15 00:11:41;;;;;;;;;;;;;;;;;;1478529;40;7949;-62
2021/05/15 00:12:43;;;;;;;;;;;;;;;;;;1482526;40;7011;-60
2021/05/15 00:13:44;;;;;;;;;;;;;;;;;;1482564;40;6987;-60
2021/05/15 00:14:46;;;;;;;;;;;;;;;;;;1478977;40;7937;-61
2021/05/15 00:15:47;;;;;;;;;;;;;;;;;;1474989;40;7035;-61
2021/05/15 00:16:48;;;;;;;;;;;;;;;;;;1474618;40;7073;-61
2021/05/15 00:17:49;;;;;;;;;;;;;;;;;;1475469;40;7074;-63
2021/05/15 00:18:50;;;;;;;;;;;;;;;;;;1474536;40;6972;-62
2021/05/15 00:19:52;;;;;;;;;;;;;;;;;;1478872;40;7036;-62
2021/05/15 00:20:53;;;;;;;;;;;;;;;;;;1474728;40;6963;-63
2021/05/15 00:21:54;;;;;;;;;;;;;;;;;;1477790;40;6980;-63
2021/05/15 00:22:55;;;;;;;;;;;;;;;;;;1476670;40;6963;-61
2021/05/15 00:23:57;;;;;;;;;;;;;;;;;;1474377;40;6948;-61
2021/05/15 00:24:58;;;;;;;;;;;;;;;;;;1474781;40;6988;-62
2021/05/15 00:26:00;;;;;;;;;;;;;;;;;;1474909;40;7062;-62
2021/05/15 00:27:01;;;;;;;;;;;;;;;;;;1474204;40;6960;-65
2021/05/15 00:28:02;;;;;;;;;;;;;;;;;;1477278;40;7085;-62
2021/05/15 00:29:04;;;;;;;;;;;;;;;;;;1478284;40;6979;-61
2021/05/15 00:30:10;;;;;;;;;;;;;;;;;;1478603;40;7055;-63
2021/05/15 00:31:11;;;;;;;;;;;;;;;;;;1477959;40;7106;-62
2021/05/15 00:32:13;;;;;;;;;;;;;;;;;;1479047;40;6955;-61
2021/05/15 00:33:14;;;;;;;;;;;;;;;;;;1479416;40;6952;-61
2021/05/15 00:34:15;;;;;;;;;;;;;;;;;;1479278;40;6951;-62
2021/05/15 00:35:16;;;;;;;;;;;;;;;;;;1478308;40;7443;-63
2021/05/15 00:36:17;;;;;;;;;;;;;;;;;;1478983;40;7939;-62
2021/05/15 00:37:19;;;;;;;;;;;;;;;;;;1479549;40;7947;-61
2021/05/15 00:38:20;;;;;;;;;;;;;;;;;;1480043;40;6996;-63
2021/05/15 00:39:21;;;;;;;;;;;;;;;;;;1479168;40;7838;-61
2021/05/15 00:40:23;;;;;;;;;;;;;;;;;;1479275;40;6992;-60
2021/05/15 00:41:24;;;;;;;;;;;;;;;;;;1479301;40;7077;-62
2021/05/15 00:42:25;;;;;;;;;;;;;;;;;;1479606;40;6996;-61
2021/05/15 00:43:28;;;;;;;;;;;;;;;;;;1478785;40;6971;-63
2021/05/15 00:44:42;;;;;;;;;;;;;;;;;;1479508;40;7871;-65
2021/05/15 00:45:44;;;;;;;;;;;;;;;;;;1479370;40;7901;-62
2021/05/15 00:46:46;;;;;;;;;;;;;;;;;;1475132;40;6984;-62
2021/05/15 00:47:47;;;;;;;;;;;;;;;;;;1475033;40;6956;-62
2021/05/15 00:48:48;;;;;;;;;;;;;;;;;;1475213;40;6988;-60
2021/05/15 00:49:51;;;;;;;;;;;;;;;;;;1475381;40;6963;-63
2021/05/15 00:50:53;;;;;;;;;;;;;;;;;;1475426;40;6990;-61
2021/05/15 00:51:55;;;;;;;;;;;;;;;;;;1478855;40;7003;-63
2021/05/15 00:52:56;;;;;;;;;;;;;;;;;;1479454;40;6996;-64
2021/05/15 00:53:58;;;;;;;;;;;;;;;;;;1479358;40;6987;-62
2021/05/15 00:55:00;;;;;;;;;;;;;;;;;;1479217;40;7023;-62
2021/05/15 00:56:01;;;;;;;;;;;;;;;;;;1479486;40;7075;-63
2021/05/15 00:57:03;;;;;;;;;;;;;;;;;;1479646;40;6987;-62
2021/05/15 00:58:04;;;;;;;;;;;;;;;;;;1479477;40;6976;-63
2021/05/15 00:59:05;;;;;;;;;;;;;;;;;;1479418;40;7283;-63
2021/05/15 01:00:12;;;;;;;;;;;;;;;;;;1479118;40;8887;-61
2021/05/15 01:01:13;;;;;;;;;;;;;;;;;;1475447;40;7062;-63
2021/05/15 01:02:14;;;;;;;;;;;;;;;;;;1475022;40;6944;-63
2021/05/15 01:03:15;;;;;;;;;;;;;;;;;;1475183;40;6948;-62
2021/05/15 01:04:16;;;;;;;;;;;;;;;;;;1477107;40;7885;-62
2021/05/15 01:05:18;;;;;;;;;;;;;;;;;;1477472;40;6964;-64
2021/05/15 01:06:20;;;;;;;;;;;;;;;;;;1475645;40;6964;-61
2021/05/15 01:07:21;;;;;;;;;;;;;;;;;;1475539;40;7003;-62
2021/05/15 01:08:23;;;;;;;;;;;;;;;;;;1475041;40;7123;-61
2021/05/15 01:09:25;;;;;;;;;;;;;;;;;;1475059;40;6968;-62
2021/05/15 01:10:26;;;;;;;;;;;;;;;;;;1475043;40;6965;-64
2021/05/15 01:11:27;;;;;;;;;;;;;;;;;;1475464;40;7015;-61
2021/05/15 01:12:30;;;;;;;;;;;;;;;;;;1478712;40;7677;-64
2021/05/15 01:13:33;;;;;;;;;;;;;;;;;;1479316;40;7330;-62
2021/05/15 01:14:38;;;;;;;;;;;;;;;;;;1479397;40;7019;-61
2021/05/15 01:15:39;;;;;;;;;;;;;;;;;;1479408;40;7087;-62
2021/05/15 01:16:40;;;;;;;;;;;;;;;;;;1478959;40;7175;-63
2021/05/15 01:17:52;;;;;;;;;;;;;;;;;;1477726;40;6959;-63
2021/05/15 01:18:54;;;;;;;;;;;;;;;;;;1475343;40;6983;-62
2021/05/15 01:19:55;;;;;;;;;;;;;;;;;;1479196;40;7281;-62
2021/05/15 01:21:00;;;;;;;;;;;;;;;;;;1479238;40;7007;-62
2021/05/15 01:22:08;;;;;;;;;;;;;;;;;;1478735;40;7020;-61
2021/05/15 01:23:09;;;;;;;;;;;;;;;;;;1476114;40;6967;-60
2021/05/15 01:24:11;;;;;;;;;;;;;;;;;;1475007;40;7003;-61
2021/05/15 01:25:12;;;;;;;;;;;;;;;;;;1475248;40;6975;-63
2021/05/15 01:26:15;;;;;;;;;;;;;;;;;;1476470;40;7060;-62
2021/05/15 01:27:16;;;;;;;;;;;;;;;;;;1479208;40;7035;-65
2021/05/15 01:28:18;;;;;;;;;;;;;;;;;;1478875;40;8881;-62
2021/05/15 01:29:19;;;;;;;;;;;;;;;;;;1478764;40;6963;-62
2021/05/15 01:30:21;;;;;;;;;;;;;;;;;;1478968;40;6976;-63
2021/05/15 01:31:23;;;;;;;;;;;;;;;;;;1479068;40;6999;-63
2021/05/15 01:32:24;;;;;;;;;;;;;;;;;;1479455;40;7872;-62
2021/05/15 01:33:25;;;;;;;;;;;;;;;;;;1479196;40;6948;-61
2021/05/15 01:34:26;;;;;;;;;;;;;;;;;;1479013;40;6983;-65
2021/05/15 01:35:28;;;;;;;;;;;;;;;;;;1478528;40;6995;-64
2021/05/15 01:36:32;;;;;;;;;;;;;;;;;;1479263;40;7098;-65
2021/05/15 01:37:34;;;;;;;;;;;;;;;;;;1479339;40;7027;-62
2021/05/15 01:38:36;;;;;;;;;;;;;;;;;;1479466;40;7940;-64
2021/05/15 01:39:37;;;;;;;;;;;;;;;;;;1479255;40;6959;-61
2021/05/15 01:40:38;;;;;;;;;;;;;;;;;;1479292;40;7907;-61
2021/05/15 01:41:39;;;;;;;;;;;;;;;;;;1479146;40;7887;-64
2021/05/15 01:42:41;;;;;;;;;;;;;;;;;;1479116;40;6984;-61
2021/05/15 01:43:43;;;;;;;;;;;;;;;;;;1479141;40;7014;-62
2021/05/15 01:44:44;;;;;;;;;;;;;;;;;;1479361;40;7001;-61
2021/05/15 01:45:46;;;;;;;;;;;;;;;;;;1479559;40;6984;-63
2021/05/15 01:46:47;;;;;;;;;;;;;;;;;;1475256;40;6963;-62
2021/05/15 01:47:48;;;;;;;;;;;;;;;;;;1475094;40;7867;-61
2021/05/15 01:48:50;;;;;;;;;;;;;;;;;;1475397;40;7916;-63
2021/05/15 01:49:51;;;;;;;;;;;;;;;;;;1475527;40;6963;-62
2021/05/15 01:51:04;;;;;;;;;;;;;;;;;;1475562;40;6968;-62
2021/05/15 01:52:05;;;;;;;;;;;;;;;;;;1475401;40;6972;-61
2021/05/15 01:53:07;;;;;;;;;;;;;;;;;;1475660;40;7036;-61
2021/05/15 01:54:08;;;;;;;;;;;;;;;;;;1474976;40;6953;-63
2021/05/15 01:55:20;;;;;;;;;;;;;;;;;;1475185;40;7023;-63
2021/05/15 01:56:23;;;;;;;;;;;;;;;;;;1475139;40;7008;-63
2021/05/15 01:57:24;;;;;;;;;;;;;;;;;;1475056;40;7225;-60
2021/05/15 01:58:26;;;;;;;;;;;;;;;;;;1475004;40;6995;-62
2021/05/15 01:59:27;;;;;;;;;;;;;;;;;;1475528;40;7113;-63
2021/05/15 02:00:29;;;;;;;;;;;;;;;;;;1475283;40;6983;-62
2021/05/15 02:01:30;;;;;;;;;;;;;;;;;;1475060;40;6973;-61
2021/05/15 02:02:31;;;;;;;;;;;;;;;;;;1475033;40;6999;-62
2021/05/15 02:03:34;;;;;;;;;;;;;;;;;;1475072;40;7044;-63
2021/05/15 02:04:35;;;;;;;;;;;;;;;;;;1475008;40;6956;-62
2021/05/15 02:05:36;;;;;;;;;;;;;;;;;;1475346;40;7922;-62
2021/05/15 02:06:38;;;;;;;;;;;;;;;;;;1478732;40;6973;-62
2021/05/15 02:07:39;;;;;;;;;;;;;;;;;;1479457;40;7035;-62
2021/05/15 02:08:42;;;;;;;;;;;;;;;;;;1479096;40;7896;-60
2021/05/15 02:09:43;;;;;;;;;;;;;;;;;;1479031;40;6991;-62
2021/05/15 02:10:44;;;;;;;;;;;;;;;;;;1482865;40;6967;-63
2021/05/15 02:11:45;;;;;;;;;;;;;;;;;;1483485;40;6980;-63
2021/05/15 02:12:47;;;;;;;;;;;;;;;;;;1476204;40;7870;-64
2021/05/15 02:13:49;;;;;;;;;;;;;;;;;;1475176;40;7024;-61
2021/05/15 02:14:50;;;;;;;;;;;;;;;;;;1474821;40;7195;-60
2021/05/15 02:15:52;;;;;;;;;;;;;;;;;;1475188;40;7016;-64
2021/05/15 02:16:54;;;;;;;;;;;;;;;;;;1474963;40;7873;-61
2021/05/15 02:17:57;;;;;;;;;;;;;;;;;;1475450;40;6976;-63
2021/05/15 02:18:59;;;;;;;;;;;;;;;;;;1475273;40;7911;-64
2021/05/15 02:20:00;;;;;;;;;;;;;;;;;;1479133;40;7919;-63
2021/05/15 02:21:02;;;;;;;;;;;;;;;;;;1478920;40;6951;-62
2021/05/15 02:22:03;;;;;;;;;;;;;;;;;;1474950;40;7875;-61
2021/05/15 02:23:04;;;;;;;;;;;;;;;;;;1474611;40;6956;-63
2021/05/15 02:24:06;;;;;;;;;;;;;;;;;;1474558;40;7003;-62
2021/05/15 02:25:07;;;;;;;;;;;;;;;;;;1474870;40;6988;-63
2021/05/15 02:26:08;;;;;;;;;;;;;;;;;;1478603;40;6987;-63
2021/05/15 02:27:09;;;;;;;;;;;;;;;;;;1478743;40;6982;-60
2021/05/15 02:28:11;;;;;;;;;;;;;;;;;;1478741;40;7080;-62
2021/05/15 02:29:12;;;;;;;;;;;;;;;;;;1478801;40;6948;-62
2021/05/15 02:30:13;;;;;;;;;;;;;;;;;;1478839;40;6971;-61
2021/05/15 02:31:15;;;;;;;;;;;;;;;;;;1478776;40;6975;-61
2021/05/15 02:32:16;;;;;;;;;;;;;;;;;;1475465;40;6971;-63
2021/05/15 02:33:18;;;;;;;;;;;;;;;;;;1475314;40;7890;-63
2021/05/15 02:34:19;;;;;;;;;;;;;;;;;;1474638;40;8569;-63
2021/05/15 02:35:20;;;;;;;;;;;;;;;;;;1474454;40;6948;-63
2021/05/15 02:36:21;;;;;;;;;;;;;;;;;;1474685;40;6976;-62
2021/05/15 02:37:22;;;;;;;;;;;;;;;;;;1475349;40;6975;-61
2021/05/15 02:38:24;;;;;;;;;;;;;;;;;;1475316;40;6963;-61
2021/05/15 02:39:25;;;;;;;;;;;;;;;;;;1474995;40;6979;-61
2021/05/15 02:40:26;;;;;;;;;;;;;;;;;;1476539;40;7151;-63
2021/05/15 02:41:27;;;;;;;;;;;;;;;;;;1479108;40;6963;-63
2021/05/15 02:42:28;;;;;;;;;;;;;;;;;;1479355;40;7324;-61
2021/05/15 02:43:30;;;;;;;;;;;;;;;;;;1479657;40;7019;-61
2021/05/15 02:44:31;;;;;;;;;;;;;;;;;;1478952;40;8598;-63
2021/05/15 02:45:32;;;;;;;;;;;;;;;;;;1475599;40;6991;-64
2021/05/15 02:46:33;;;;;;;;;;;;;;;;;;1475877;40;7015;-61
2021/05/15 02:47:35;;;;;;;;;;;;;;;;;;1475420;40;7819;-63
2021/05/15 02:48:36;;;;;;;;;;;;;;;;;;1475304;40;6979;-62
2021/05/15 02:49:37;;;;;;;;;;;;;;;;;;1475022;40;6951;-60
2021/05/15 02:50:39;;;;;;;;;;;;;;;;;;1475294;40;7855;-61
2021/05/15 02:51:40;;;;;;;;;;;;;;;;;;1475183;40;7111;-60
2021/05/15 02:52:41;;;;;;;;;;;;;;;;;;1475363;40;7895;-62
2021/05/15 02:53:43;;;;;;;;;;;;;;;;;;1475012;40;7048;-63
2021/05/15 02:54:44;;;;;;;;;;;;;;;;;;1474827;40;7850;-62
2021/05/15 02:55:45;;;;;;;;;;;;;;;;;;1475384;40;6979;-61
2021/05/15 02:56:46;;;;;;;;;;;;;;;;;;1477442;40;7099;-62
2021/05/15 02:57:49;;;;;;;;;;;;;;;;;;1479507;40;6967;-62
2021/05/15 02:58:50;;;;;;;;;;;;;;;;;;1479453;40;7040;-62
2021/05/15 02:59:51;;;;;;;;;;;;;;;;;;1478987;40;7863;-64
2021/05/15 03:00:52;;;;;;;;;;;;;;;;;;1478930;40;6972;-63
2021/05/15 03:01:54;;;;;;;;;;;;;;;;;;1479174;40;6989;-62
2021/05/15 03:02:58;;;;;;;;;;;;;;;;;;1479220;40;8339;-62
2021/05/15 03:03:59;;;;;;;;;;;;;;;;;;1479127;40;6968;-63
2021/05/15 03:05:01;;;;;;;;;;;;;;;;;;1478548;40;7094;-64
2021/05/15 03:06:02;;;;;;;;;;;;;;;;;;1474870;40;7075;-63
2021/05/15 03:07:03;;;;;;;;;;;;;;;;;;1474775;40;7023;-61
2021/05/15 03:08:05;;;;;;;;;;;;;;;;;;1475413;40;7140;-61
2021/05/15 03:09:06;;;;;;;;;;;;;;;;;;1475552;40;7168;-63
2021/05/15 03:10:09;;;;;;;;;;;;;;;;;;1478719;40;6972;-62
2021/05/15 03:11:10;;;;;;;;;;;;;;;;;;1479411;40;6971;-63
2021/05/15 03:12:12;;;;;;;;;;;;;;;;;;1479110;40;6984;-61
2021/05/15 03:13:13;;;;;;;;;;;;;;;;;;1479036;40;7196;-63
2021/05/15 03:14:14;;;;;;;;;;;;;;;;;;1479314;40;6980;-60
2021/05/15 03:15:16;;;;;;;;;;;;;;;;;;1479189;40;7033;-63
2021/05/15 03:16:17;;;;;;;;;;;;;;;;;;1479327;40;6995;-61
2021/05/15 03:17:18;;;;;;;;;;;;;;;;;;1478832;40;7923;-61
2021/05/15 03:18:19;;;;;;;;;;;;;;;;;;1474775;40;7864;-61
2021/05/15 03:19:20;;;;;;;;;;;;;;;;;;1477198;40;7812;-63
2021/05/15 03:20:24;;;;;;;;;;;;;;;;;;1474941;40;7206;-62
2021/05/15 03:21:25;;;;;;;;;;;;;;;;;;1476143;40;6984;-63
2021/05/15 03:22:26;;;;;;;;;;;;;;;;;;1478819;40;7859;-60
2021/05/15 03:23:27;;;;;;;;;;;;;;;;;;1474814;40;7871;-63
2021/05/15 03:24:29;;;;;;;;;;;;;;;;;;1474824;40;6984;-62
2021/05/15 03:25:30;;;;;;;;;;;;;;;;;;1475007;40;7072;-61
2021/05/15 03:26:31;;;;;;;;;;;;;;;;;;1474631;40;6999;-63
2021/05/15 03:27:34;;;;;;;;;;;;;;;;;;1474685;40;6972;-64
2021/05/15 03:28:35;;;;;;;;;;;;;;;;;;1474844;40;7846;-62
2021/05/15 03:29:36;;;;;;;;;;;;;;;;;;1474872;40;6996;-64
2021/05/15 03:30:37;;;;;;;;;;;;;;;;;;1478397;40;6988;-63
2021/05/15 03:31:38;;;;;;;;;;;;;;;;;;1478808;40;8032;-60
2021/05/15 03:32:41;;;;;;;;;;;;;;;;;;1479182;40;7842;-61
2021/05/15 03:33:42;;;;;;;;;;;;;;;;;;1479222;40;6951;-62
2021/05/15 03:34:43;;;;;;;;;;;;;;;;;;1478797;40;6959;-62
2021/05/15 03:35:45;;;;;;;;;;;;;;;;;;1478588;40;7821;-62
2021/05/15 03:36:46;;;;;;;;;;;;;;;;;;1479029;40;7061;-62
2021/05/15 03:37:47;;;;;;;;;;;;;;;;;;1480979;40;7021;-62
2021/05/15 03:38:48;;;;;;;;;;;;;;;;;;1478556;40;6967;-60
2021/05/15 03:39:50;;;;;;;;;;;;;;;;;;1475173;40;6987;-63
2021/05/15 03:40:51;;;;;;;;;;;;;;;;;;1478274;40;7136;-63
2021/05/15 03:41:53;;;;;;;;;;;;;;;;;;1479001;40;6964;-60
2021/05/15 03:42:56;;;;;;;;;;;;;;;;;;1479078;40;6975;-62
2021/05/15 03:43:57;;;;;;;;;;;;;;;;;;1479005;40;7985;-63
2021/05/15 03:44:58;;;;;;;;;;;;;;;;;;1479036;40;7067;-64
2021/05/15 03:45:59;;;;;;;;;;;;;;;;;;1478838;40;7897;-62
2021/05/15 03:47:01;;;;;;;;;;;;;;;;;;1474971;40;6995;-63
2021/05/15 03:48:02;;;;;;;;;;;;;;;;;;1474860;40;7208;-63
2021/05/15 03:49:03;;;;;;;;;;;;;;;;;;1478555;40;6984;-61
2021/05/15 03:50:05;;;;;;;;;;;;;;;;;;1479096;40;6979;-62
2021/05/15 03:51:06;;;;;;;;;;;;;;;;;;1475281;40;6971;-61
2021/05/15 03:52:07;;;;;;;;;;;;;;;;;;1474844;40;6995;-60
2021/05/15 03:53:08;;;;;;;;;;;;;;;;;;1477254;40;6964;-62
2021/05/15 03:54:10;;;;;;;;;;;;;;;;;;1479166;40;7160;-63
2021/05/15 03:55:11;;;;;;;;;;;;;;;;;;1478986;40;6968;-62
2021/05/15 03:56:12;;;;;;;;;;;;;;;;;;1478902;40;6963;-62
2021/05/15 03:57:13;;;;;;;;;;;;;;;;;;1478702;40;6960;-62
2021/05/15 03:58:16;;;;;;;;;;;;;;;;;;1479395;40;6976;-62
2021/05/15 03:59:17;;;;;;;;;;;;;;;;;;1479093;40;7019;-63
2021/05/15 04:00:19;;;;;;;;;;;;;;;;;;1479184;40;6971;-61
2021/05/15 04:01:21;;;;;;;;;;;;;;;;;;1479301;40;7020;-61
2021/05/15 04:02:25;;;;;;;;;;;;;;;;;;1478995;40;6995;-62
2021/05/15 04:03:26;;;;;;;;;;;;;;;;;;1478832;40;6948;-63
2021/05/15 04:04:27;;;;;;;;;;;;;;;;;;1478894;40;7007;-61
2021/05/15 04:05:28;;;;;;;;;;;;;;;;;;1476216;40;6991;-63
2021/05/15 04:06:30;;;;;;;;;;;;;;;;;;1475770;40;7107;-61
2021/05/15 04:07:31;;;;;;;;;;;;;;;;;;1475579;40;6991;-61
2021/05/15 04:08:32;;;;;;;;;;;;;;;;;;1475447;40;7871;-64
2021/05/15 04:09:33;;;;;;;;;;;;;;;;;;1475613;40;7107;-62
2021/05/15 04:10:36;;;;;;;;;;;;;;;;;;1475742;40;6964;-63
2021/05/15 04:11:39;;;;;;;;;;;;;;;;;;1475897;40;7881;-63
2021/05/15 04:12:49;;;;;;;;;;;;;;;;;;1475785;40;7163;-61
2021/05/15 04:13:55;;;;;;;;;;;;;;;;;;1475572;40;7003;-63
2021/05/15 04:15:08;;;;;;;;;;;;;;;;;;1475795;40;7113;-61
2021/05/15 04:17:28;;;;;;;;;;;;;;;;;;1476130;40;7089;-62
2021/05/15 04:18:30;;;;;;;;;;;;;;;;;;1478243;40;6987;-63
2021/05/15 04:19:32;;;;;;;;;;;;;;;;;;1478999;40;7111;-61
2021/05/15 04:20:35;;;;;;;;;;;;;;;;;;1479489;40;6972;-63
2021/05/15 04:21:36;;;;;;;;;;;;;;;;;;1477245;40;6955;-61
2021/05/15 04:22:37;;;;;;;;;;;;;;;;;;1475009;40;6951;-62
2021/05/15 04:23:39;;;;;;;;;;;;;;;;;;1475019;40;6971;-63
2021/05/15 04:24:40;;;;;;;;;;;;;;;;;;1475211;40;7267;-63
2021/05/15 04:25:41;;;;;;;;;;;;;;;;;;1475085;40;6983;-61
2021/05/15 04:26:42;;;;;;;;;;;;;;;;;;1474950;40;6952;-61
2021/05/15 04:27:43;;;;;;;;;;;;;;;;;;1478779;40;7851;-62
2021/05/15 04:28:44;;;;;;;;;;;;;;;;;;1478894;40;7230;-63
2021/05/15 04:29:46;;;;;;;;;;;;;;;;;;1478741;40;7090;-62
2021/05/15 04:30:48;;;;;;;;;;;;;;;;;;1478509;40;6961;-60
2021/05/15 04:31:50;;;;;;;;;;;;;;;;;;1479114;40;7031;-63
2021/05/15 04:32:51;;;;;;;;;;;;;;;;;;1479876;40;6975;-62
2021/05/15 04:33:53;;;;;;;;;;;;;;;;;;1479595;40;7895;-62
2021/05/15 04:34:54;;;;;;;;;;;;;;;;;;1478917;40;7003;-63
2021/05/15 04:35:55;;;;;;;;;;;;;;;;;;1478706;40;6975;-63
2021/05/15 04:36:58;;;;;;;;;;;;;;;;;;1479421;40;7847;-63
2021/05/15 04:38:03;;;;;;;;;;;;;;;;;;1483164;40;6952;-66
2021/05/15 04:39:05;;;;;;;;;;;;;;;;;;1482702;40;7019;-62
2021/05/15 04:40:07;;;;;;;;;;;;;;;;;;1479399;40;7015;-62
2021/05/15 04:41:08;;;;;;;;;;;;;;;;;;1475249;40;6996;-62
2021/05/15 04:42:09;;;;;;;;;;;;;;;;;;1475816;40;7011;-63
2021/05/15 04:43:10;;;;;;;;;;;;;;;;;;1475558;40;6975;-62
2021/05/15 04:44:12;;;;;;;;;;;;;;;;;;1475405;40;7278;-62
2021/05/15 04:45:14;;;;;;;;;;;;;;;;;;1475594;40;6976;-64
2021/05/15 04:46:15;;;;;;;;;;;;;;;;;;1475731;40;6988;-63
2021/05/15 04:47:16;;;;;;;;;;;;;;;;;;1475693;40;6979;-62
2021/05/15 04:48:18;;;;;;;;;;;;;;;;;;1479799;40;6960;-62
2021/05/15 04:49:19;;;;;;;;;;;;;;;;;;1479100;40;6932;-63
2021/05/15 04:50:20;;;;;;;;;;;;;;;;;;1479342;40;7844;-64
2021/05/15 04:51:22;;;;;;;;;;;;;;;;;;1479332;40;7867;-62
2021/05/15 04:52:23;;;;;;;;;;;;;;;;;;1479669;40;6959;-64
2021/05/15 04:53:24;;;;;;;;;;;;;;;;;;1479345;40;7825;-63
2021/05/15 04:54:25;;;;;;;;;;;;;;;;;;1479477;40;6991;-62
2021/05/15 04:55:26;;;;;;;;;;;;;;;;;;1479397;40;6955;-64
2021/05/15 04:56:28;;;;;;;;;;;;;;;;;;1479583;40;6975;-65
2021/05/15 04:57:30;;;;;;;;;;;;;;;;;;1479770;40;6964;-63
2021/05/15 04:58:31;;;;;;;;;;;;;;;;;;1480000;40;7011;-63
2021/05/15 04:59:33;;;;;;;;;;;;;;;;;;1479287;40;7821;-62
2021/05/15 05:00:34;;;;;;;;;;;;;;;;;;1479476;40;7255;-64
2021/05/15 05:01:35;;;;;;;;;;;;;;;;;;1479361;40;7870;-60
2021/05/15 05:02:36;;;;;;;;;;;;;;;;;;1479864;40;7902;-62
2021/05/15 05:03:37;;;;;;;;;;;;;;;;;;1476746;40;8669;-62
2021/05/15 05:04:38;;;;;;;;;;;;;;;;;;1475380;40;6955;-66
2021/05/15 05:05:40;;;;;;;;;;;;;;;;;;1475397;40;6968;-63
2021/05/15 05:06:41;;;;;;;;;;;;;;;;;;1475543;40;6963;-62
2021/05/15 05:07:42;;;;;;;;;;;;;;;;;;1475830;40;7079;-63
2021/05/15 05:08:43;;;;;;;;;;;;;;;;;;1475457;40;6979;-61
2021/05/15 05:09:45;;;;;;;;;;;;;;;;;;1475432;40;6947;-63
2021/05/15 05:10:46;;;;;;;;;;;;;;;;;;1475743;40;7081;-61
2021/05/15 05:11:48;;;;;;;;;;;;;;;;;;1475448;40;7938;-64
2021/05/15 05:12:49;;;;;;;;;;;;;;;;;;1475584;40;6980;-62
2021/05/15 05:13:50;;;;;;;;;;;;;;;;;;1475391;40;6964;-61
2021/05/15 05:14:52;;;;;;;;;;;;;;;;;;1476368;40;6964;-62
2021/05/15 05:15:53;;;;;;;;;;;;;;;;;;1479400;40;6995;-61
2021/05/15 05:16:57;;;;;;;;;;;;;;;;;;1479273;40;7003;-63
2021/05/15 05:17:58;;;;;;;;;;;;;;;;;;1477210;40;7095;-63
2021/05/15 05:18:59;;;;;;;;;;;;;;;;;;1475794;40;6959;-62
2021/05/15 05:20:01;;;;;;;;;;;;;;;;;;1478819;40;7899;-62
2021/05/15 05:21:02;;;;;;;;;;;;;;;;;;1478953;40;7000;-62
2021/05/15 05:22:03;;;;;;;;;;;;;;;;;;1475376;40;6965;-61
2021/05/15 05:23:05;;;;;;;;;;;;;;;;;;1475352;40;6988;-62
2021/05/15 05:24:07;;;;;;;;;;;;;;;;;;1479159;40;7035;-63
2021/05/15 05:25:11;;;;;;;;;;;;;;;;;;1478790;40;7859;-63
2021/05/15 05:26:13;;;;;;;;;;;;;;;;;;1477157;40;6983;-61
2021/05/15 05:27:14;;;;;;;;;;;;;;;;;;1474824;40;7097;-61
2021/05/15 05:28:20;;;;;;;;;;;;;;;;;;1475065;40;7871;-62
2021/05/15 05:29:22;;;;;;;;;;;;;;;;;;1474983;40;6999;-62
2021/05/15 05:30:23;;;;;;;;;;;;;;;;;;1474886;40;7063;-63
2021/05/15 05:31:24;;;;;;;;;;;;;;;;;;1475060;40;7873;-62
2021/05/15 05:32:26;;;;;;;;;;;;;;;;;;1475400;40;6959;-62
2021/05/15 05:33:27;;;;;;;;;;;;;;;;;;1475152;40;6952;-63
2021/05/15 05:34:30;;;;;;;;;;;;;;;;;;1475228;40;7524;-62
2021/05/15 05:35:34;;;;;;;;;;;;;;;;;;1478556;40;7274;-63
2021/05/15 05:36:36;;;;;;;;;;;;;;;;;;1479266;40;7011;-65
2021/05/15 05:37:38;;;;;;;;;;;;;;;;;;1479497;40;6964;-62
2021/05/15 05:38:39;;;;;;;;;;;;;;;;;;1479407;40;6967;-64
2021/05/15 05:39:40;;;;;;;;;;;;;;;;;;1479578;40;6956;-62
2021/05/15 05:40:41;;;;;;;;;;;;;;;;;;1479553;40;6984;-62
2021/05/15 05:41:44;;;;;;;;;;;;;;;;;;1479176;40;7023;-62
2021/05/15 05:42:45;;;;;;;;;;;;;;;;;;1479509;40;6959;-65
2021/05/15 05:43:46;;;;;;;;;;;;;;;;;;1479239;40;6971;-60
2021/05/15 05:44:47;;;;;;;;;;;;;;;;;;1479504;40;6964;-65
2021/05/15 05:45:49;;;;;;;;;;;;;;;;;;1478198;40;7003;-63
2021/05/15 05:46:50;;;;;;;;;;;;;;;;;;1475240;40;7066;-62
2021/05/15 05:47:51;;;;;;;;;;;;;;;;;;1475141;40;7879;-61
2021/05/15 05:48:52;;;;;;;;;;;;;;;;;;1475408;40;7016;-61
2021/05/15 05:49:53;;;;;;;;;;;;;;;;;;1475673;40;7026;-65
2021/05/15 05:50:54;;;;;;;;;;;;;;;;;;1475332;40;7546;-63
2021/05/15 05:51:56;;;;;;;;;;;;;;;;;;1475119;40;9193;-62
2021/05/15 05:52:58;;;;;;;;;;;;;;;;;;1475280;40;6956;-61
2021/05/15 05:53:59;;;;;;;;;;;;;;;;;;1479233;40;6944;-63
2021/05/15 05:55:02;;;;;;;;;;;;;;;;;;1479403;40;6996;-62
2021/05/15 05:56:05;;;;;;;;;;;;;;;;;;1479752;40;6963;-62
2021/05/15 05:57:06;;;;;;;;;;;;;;;;;;1479383;40;7003;-62
2021/05/15 05:58:07;;;;;;;;;;;;;;;;;;1479282;40;6951;-63
2021/05/15 05:59:08;;;;;;;;;;;;;;;;;;1479313;40;6956;-63
2021/05/15 06:00:10;;;;;;;;;;;;;;;;;;1479476;40;6960;-64
2021/05/15 06:01:15;;;;;;;;;;;;;;;;;;1478975;40;7010;-63
2021/05/15 06:02:17;;;;;;;;;;;;;;;;;;1479542;40;7073;-60
2021/05/15 06:03:18;;;;;;;;;;;;;;;;;;1479776;40;6975;-61
2021/05/15 06:04:19;;;;;;;;;;;;;;;;;;1479231;40;6956;-64
2021/05/15 06:05:20;;;;;;;;;;;;;;;;;;1477018;40;6976;-62
2021/05/15 06:06:21;;;;;;;;;;;;;;;;;;1475272;40;7857;-61
2021/05/15 06:07:22;;;;;;;;;;;;;;;;;;1479135;40;7122;-62
2021/05/15 06:08:25;;;;;;;;;;;;;;;;;;1478759;40;7855;-64
2021/05/15 06:09:26;;;;;;;;;;;;;;;;;;1475466;40;6995;-63
2021/05/15 06:10:28;;;;;;;;;;;;;;;;;;1475421;40;7088;-64
2021/05/15 06:11:29;;;;;;;;;;;;;;;;;;1475228;40;6979;-63
2021/05/15 06:12:30;;;;;;;;;;;;;;;;;;1475505;40;6960;-63
2021/05/15 06:13:32;;;;;;;;;;;;;;;;;;1475402;40;7875;-62
2021/05/15 06:14:35;;;;;;;;;;;;;;;;;;1475031;40;6995;-63
2021/05/15 06:15:37;;;;;;;;;;;;;;;;;;1475479;40;7859;-62
2021/05/15 06:16:38;;;;;;;;;;;;;;;;;;1475176;40;6956;-60
2021/05/15 06:17:40;;;;;;;;;;;;;;;;;;1476058;40;7003;-62
2021/05/15 06:18:41;;;;;;;;;;;;;;;;;;1475066;40;7028;-61
2021/05/15 06:19:44;;;;;;;;;;;;;;;;;;1478837;40;6979;-61
2021/05/15 06:20:45;;;;;;;;;;;;;;;;;;1479016;40;6939;-60
2021/05/15 06:21:47;;;;;;;;;;;;;;;;;;1476273;40;6979;-62
2021/05/15 06:22:48;;;;;;;;;;;;;;;;;;1474797;40;6992;-64
2021/05/15 06:23:49;;;;;;;;;;;;;;;;;;1474988;40;6967;-62
2021/05/15 06:24:50;;;;;;;;;;;;;;;;;;1475060;40;8203;-63
2021/05/15 06:25:52;;;;;;;;;;;;;;;;;;1474758;40;6992;-62
2021/05/15 06:26:53;;;;;;;;;;;;;;;;;;1474887;40;7916;-62
2021/05/15 06:27:55;;;;;;;;;;;;;;;;;;1475281;40;7103;-62
2021/05/15 06:28:56;;;;;;;;;;;;;;;;;;1474515;40;7000;-63
2021/05/15 06:29:57;;;;;;;;;;;;;;;;;;1478787;40;6940;-64
2021/05/15 06:30:59;;;;;;;;;;;;;;;;;;1478381;40;6952;-63
2021/05/15 06:32:00;;;;;;;;;;;;;;;;;;1475138;40;7007;-62
2021/05/15 06:33:01;;;;;;;;;;;;;;;;;;1475280;40;7846;-62
2021/05/15 06:34:02;;;;;;;;;;;;;;;;;;1475505;40;6951;-61
2021/05/15 06:35:04;;;;;;;;;;;;;;;;;;1474530;40;6980;-64
2021/05/15 06:36:05;;;;;;;;;;;;;;;;;;1474709;40;6980;-60
2021/05/15 06:37:07;;;;;;;;;;;;;;;;;;1475292;40;6991;-62
2021/05/15 06:38:09;;;;;;;;;;;;;;;;;;1475381;40;7011;-65
2021/05/15 06:39:10;;;;;;;;;;;;;;;;;;1475229;40;7879;-61
2021/05/15 06:40:12;;;;;;;;;;;;;;;;;;1476248;40;6957;-64
2021/05/15 06:41:13;;;;;;;;;;;;;;;;;;1479294;40;6964;-66
2021/05/15 06:42:14;;;;;;;;;;;;;;;;;;1479134;40;6963;-63
2021/05/15 06:43:15;;;;;;;;;;;;;;;;;;1479337;40;7202;-65
2021/05/15 06:44:16;;;;;;;;;;;;;;;;;;1479384;40;6975;-61
2021/05/15 06:45:18;;;;;;;;;;;;;;;;;;1479502;40;7127;-62
2021/05/15 06:46:19;;;;;;;;;;;;;;;;;;1476111;40;6996;-67
2021/05/15 06:47:20;;;;;;;;;;;;;;;;;;1475140;40;7128;-61
2021/05/15 06:48:21;;;;;;;;;;;;;;;;;;1475281;40;7091;-64
2021/05/15 06:49:23;;;;;;;;;;;;;;;;;;1479628;40;7086;-60
2021/05/15 06:50:24;;;;;;;;;;;;;;;;;;1479189;40;7861;-64
2021/05/15 06:51:26;;;;;;;;;;;;;;;;;;1479299;40;7075;-63
2021/05/15 06:52:27;;;;;;;;;;;;;;;;;;1479565;40;6959;-63
2021/05/15 06:53:28;;;;;;;;;;;;;;;;;;1479344;40;7015;-63
2021/05/15 06:54:30;;;;;;;;;;;;;;;;;;1479369;40;6996;-63
2021/05/15 06:55:31;;;;;;;;;;;;;;;;;;1479723;40;7065;-64
2021/05/15 06:56:33;;;;;;;;;;;;;;;;;;1479015;40;6963;-65
2021/05/15 06:57:34;;;;;;;;;;;;;;;;;;1479269;40;6987;-63
2021/05/15 06:58:35;;;;;;;;;;;;;;;;;;1479183;40;6957;-63
2021/05/15 06:59:36;;;;;;;;;;;;;;;;;;1479643;40;6975;-64
2021/05/15 07:00:38;;;;;;;;;;;;;;;;;;1475427;40;6968;-62
2021/05/15 07:01:39;;;;;;;;;;;;;;;;;;1475214;40;6944;-62
2021/05/15 07:02:40;;;;;;;;;;;;;;;;;;1475051;40;6984;-62
2021/05/15 07:03:41;;;;;;;;;;;;;;;;;;1475241;40;6980;-63
2021/05/15 07:04:42;;;;;;;;;;;;;;;;;;1475433;40;7008;-63
2021/05/15 07:05:44;;;;;;;;;;;;;;;;;;1475289;40;6975;-66
2021/05/15 07:06:45;;;;;;;;;;;;;;;;;;1475122;40;7061;-63
2021/05/15 07:07:46;;;;;;;;;;;;;;;;;;1475362;40;6995;-63
2021/05/15 07:08:47;;;;;;;;;;;;;;;;;;1475115;40;7912;-63
2021/05/15 07:09:50;;;;;;;;;;;;;;;;;;1475406;40;7189;-63